Time;durP1;ratioP1;P1;durP2;ratioP2;P2;SDS_P1;SDS_P2;PMS_P1;PMS_P2;Temp;Humidity;BMP_temperature;BMP_pressure;BME280_temperature;BME280_humidity;BME280_pressure;Samples;Min_cycle;Max_cycle;Signal;HPM_P1;HPM_P2
2021/12/07 00:01:54;;;;;;;6.30;5.28;;;;;;;3.16;64.55;100719.50;4950022;28;20059;-83
2021/12/07 00:04:21;;;;;;;5.70;5.10;;;;;;;3.89;66.06;100834.41;4967728;28;20058;-82
2021/12/07 00:06:48;;;;;;;5.55;5.00;;;;;;;3.88;66.75;100827.44;4950825;28;20490;-83
2021/12/07 00:09:19;;;;;;;6.07;5.03;;;;;;;3.43;65.16;100750.38;4951087;28;20061;-82
2021/12/07 00:11:48;;;;;;;5.05;4.65;;;;;;;3.89;64.44;100818.66;4969386;28;20051;-83
2021/12/07 00:14:24;;;;;;;7.03;5.60;;;;;;;3.35;66.94;100708.84;4968722;28;20055;-82
2021/12/07 00:16:54;;;;;;;7.60;5.72;;;;;;;2.91;64.78;100609.03;4967554;28;20054;-82
2021/12/07 00:19:21;;;;;;;6.72;6.00;;;;;;;3.71;63.87;100743.53;4951596;28;20073;-83
2021/12/07 00:21:50;;;;;;;7.40;5.10;;;;;;;3.54;65.52;100732.22;4949983;28;20468;-81
2021/12/07 00:24:17;;;;;;;6.90;4.80;;;;;;;3.35;65.11;100697.47;4950487;28;20042;-82
2021/12/07 00:26:44;;;;;;;5.18;4.68;;;;;;;4.20;64.86;100829.97;4966038;28;20101;-83
2021/12/07 00:29:13;;;;;;;7.20;5.32;;;;;;;2.97;63.65;100613.94;4950035;28;20054;-82
2021/12/07 00:31:50;;;;;;;8.02;7.07;;;;;;;4.19;63.96;100817.78;4967533;28;20050;-83
2021/12/07 00:34:37;;;;;;;6.87;5.40;;;;;;;3.53;64.45;100701.66;4949881;28;20572;-82
2021/12/07 00:37:04;;;;;;;5.27;4.63;;;;;;;4.22;64.96;100821.09;4967450;28;20082;-83
2021/12/07 00:39:31;;;;;;;5.28;4.78;;;;;;;3.39;65.09;100678.00;4950388;28;20047;-83
2021/12/07 00:41:58;;;;;;;5.20;4.37;;;;;;;4.04;64.98;100796.72;4950137;28;20058;-86
2021/12/07 00:44:27;;;;;;;5.57;4.57;;;;;;;3.75;63.39;100773.94;4950478;28;20448;-82
2021/12/07 00:46:53;;;;;;;7.40;4.83;;;;;;;3.94;63.93;100806.09;4950376;28;20038;-83
2021/12/07 00:49:21;;;;;;;7.17;5.37;;;;;;;3.16;64.65;100680.16;4950510;28;20051;-82
2021/12/07 00:51:48;;;;;;;8.70;5.67;;;;;;;4.01;64.47;100830.22;4968030;28;20055;-82
2021/12/07 00:54:15;;;;;;;6.43;5.70;;;;;;;3.49;64.68;100742.13;4966199;28;20068;-82
2021/12/07 00:56:42;;;;;;;5.10;4.60;;;;;;;3.89;66.38;100802.03;4950947;28;20097;-84
2021/12/07 00:59:09;;;;;;;5.43;4.83;;;;;;;3.42;66.60;100727.69;4966850;28;20043;-83
2021/12/07 01:01:36;;;;;;;5.30;4.80;;;;;;;3.89;65.99;100812.56;4954972;28;20058;-82
2021/12/07 01:04:04;;;;;;;7.00;4.67;;;;;;;3.75;65.74;100800.19;4970972;28;20408;-83
2021/12/07 01:06:44;;;;;;;5.70;4.90;;;;;;;3.13;65.24;100709.19;4970485;28;20082;-84
2021/12/07 01:24:40;;;;;;;7.40;5.33;;;;;;;2.75;66.94;100641.38;4970313;28;20047;-83
2021/12/07 01:25:55;;;;;;;5.67;5.03;;;;;;;2.86;65.63;100632.06;4969889;28;20605;-83
2021/12/07 01:28:30;;;;;;;5.93;5.32;;;;;;;3.66;66.11;100758.72;4952924;28;20143;-84
2021/12/07 01:31:08;;;;;;;6.60;5.53;;;;;;;2.76;67.25;100606.34;4952835;28;20078;-83
2021/12/07 02:00:04;;;;;;;6.70;3.90;;;;;;;3.49;66.79;100773.63;4969364;28;20089;-82
2021/12/07 02:02:31;;;;;;;4.73;4.10;;;;;;;2.51;67.41;100622.59;4951968;28;20146;-85
2021/12/07 02:04:57;;;;;;;4.30;3.90;;;;;;;2.82;68.64;100693.47;4969466;28;20085;-82
2021/12/07 02:07:24;;;;;;;4.53;3.63;;;;;;;3.17;67.82;100747.44;4984244;28;20055;-83
2021/12/07 02:09:56;;;;;;;5.47;4.00;;;;;;;3.36;66.02;100793.66;4952246;28;20105;-83
2021/12/07 02:12:23;;;;;;;3.70;3.40;;;;;;;3.36;67.82;100791.03;4951770;28;20058;-83
2021/12/07 02:14:50;;;;;;;4.63;4.13;;;;;;;3.12;68.86;100754.72;4952272;28;20137;-83
2021/12/07 02:17:22;;;;;;;6.17;4.07;;;;;;;3.30;69.03;100778.22;4952158;28;20138;-84
2021/12/07 02:19:49;;;;;;;5.55;3.78;;;;;;;3.50;68.22;100792.88;4969695;28;20405;-83
2021/12/07 02:22:17;;;;;;;5.93;4.13;;;;;;;3.37;66.10;100751.59;4951949;28;20051;-83
2021/12/07 02:24:45;;;;;;;4.17;3.47;;;;;;;3.47;67.87;100775.53;4951916;28;20079;-83
2021/12/07 02:27:12;;;;;;;7.73;4.33;;;;;;;2.93;67.75;100706.81;4951552;28;20141;-83
2021/12/07 02:29:39;;;;;;;6.13;3.70;;;;;;;2.22;67.82;100565.72;4951650;28;20051;-83
2021/12/07 02:32:06;;;;;;;8.03;4.00;;;;;;;3.28;67.12;100717.16;4951408;28;20054;-83
2021/12/07 02:34:35;;;;;;;4.70;3.60;;;;;;;3.44;67.01;100754.69;4951587;28;20134;-83
2021/12/07 02:37:03;;;;;;;5.87;4.13;;;;;;;2.13;67.93;100548.72;4951422;28;20138;-83
2021/12/07 02:39:35;;;;;;;4.73;3.73;;;;;;;2.97;67.51;100693.47;4968830;28;20129;-82
2021/12/07 02:42:03;;;;;;;;;;;;;;;3.49;68.89;100799.88;4967437;28;20069;-83
2021/12/07 02:44:31;;;;;;;4.13;3.70;;;;;;;3.38;69.08;100807.53;4950992;28;20230;-83
2021/12/07 02:46:58;;;;;;;5.37;4.23;;;;;;;3.25;69.18;100783.72;4950959;28;20136;-84
2021/12/07 02:49:26;;;;;;;3.80;3.47;;;;;;;3.33;69.28;100815.66;4951130;28;20138;-82
2021/12/07 02:51:52;;;;;;;4.77;4.00;;;;;;;3.03;68.63;100768.34;4950831;28;20154;-83
2021/12/07 02:54:21;;;;;;;5.03;4.53;;;;;;;2.95;68.73;100753.03;4950822;28;20050;-82
2021/12/07 02:56:50;;;;;;;4.50;3.87;;;;;;;3.01;69.69;100762.34;4950959;28;20141;-82
2021/12/07 02:59:19;;;;;;;4.50;3.73;;;;;;;2.99;69.54;100772.06;4951244;28;20047;-82
2021/12/07 03:01:54;;;;;;;5.33;3.20;;;;;;;2.18;69.42;100650.63;4948237;29;20065;-82
2021/12/07 03:04:26;;;;;;;6.00;3.00;;;;;;;3.05;67.92;100800.56;4981393;28;20204;-83
2021/12/07 03:28:41;;;;;;;3.53;2.87;;;;;;;2.81;68.29;100766.03;4948643;28;20047;-82
2021/12/07 03:31:09;;;;;;;3.23;2.93;;;;;;;2.83;67.44;100771.19;4946944;29;20525;-82
2021/12/07 03:33:37;;;;;;;3.87;3.47;;;;;;;2.99;68.21;100803.53;4948412;29;20493;-83
2021/12/07 03:36:05;;;;;;;4.43;3.10;;;;;;;2.53;67.12;100729.97;4947522;29;20197;-82
2021/12/07 03:38:32;;;;;;;4.80;3.43;;;;;;;2.18;68.60;100676.81;4947294;29;20242;-81
2021/12/07 03:40:59;;;;;;;4.27;3.10;;;;;;;2.61;65.50;100759.25;4947496;29;20630;-83
2021/12/07 03:43:26;;;;;;;4.53;3.50;;;;;;;2.18;64.70;100680.28;4948856;28;20378;-81
2021/12/07 03:45:53;;;;;;;3.30;2.93;;;;;;;2.92;65.97;100807.44;4979456;28;20085;-82
2021/12/07 03:48:19;;;;;;;3.27;2.97;;;;;;;1.98;66.30;100659.53;4948605;28;20099;-82
2021/12/07 03:50:46;;;;;;;4.00;3.50;;;;;;;2.88;65.63;100819.00;4948883;28;20142;-82
2021/12/07 03:53:13;;;;;;;2.87;2.67;;;;;;;2.88;64.42;100819.00;4947499;29;20383;-82
2021/12/07 03:55:41;;;;;;;3.97;3.20;;;;;;;2.69;65.79;100788.50;4946774;29;20797;-82
2021/12/07 03:58:08;;;;;;;3.60;2.67;;;;;;;2.85;66.32;100816.53;4948383;28;20097;-82
2021/12/07 04:00:39;;;;;;;3.30;2.70;;;;;;;1.51;67.98;100586.97;4962895;28;20051;-82
2021/12/07 04:03:09;;;;;;;4.33;3.47;;;;;;;2.96;67.27;100801.06;4959253;28;20269;-83
2021/12/07 04:05:44;;;;;;;6.40;3.37;;;;;;;3.08;66.21;100805.63;4929478;29;20052;-83
2021/12/07 04:08:19;;;;;;;3.83;2.97;;;;;;;2.94;67.56;100776.72;4959594;28;20063;-82
2021/12/07 04:10:47;;;;;;;4.93;3.50;;;;;;;3.08;66.42;100799.56;4927726;29;20056;-83
2021/12/07 04:13:14;;;;;;;3.20;2.67;;;;;;;3.14;65.95;100813.19;4927952;29;20450;-83
2021/12/07 04:15:42;;;;;;;4.80;3.10;;;;;;;3.15;67.44;100812.25;4928262;29;20079;-82
2021/12/07 04:18:09;;;;;;;5.40;3.30;;;;;;;3.16;67.65;100807.88;4959609;28;20055;-83
2021/12/07 04:20:36;;;;;;;4.00;3.00;;;;;;;3.08;67.75;100802.19;4959616;28;20248;-84
2021/12/07 04:23:04;;;;;;;3.50;3.20;;;;;;;2.43;68.67;100698.19;4928970;29;20338;-82
2021/12/07 04:25:32;;;;;;;3.43;2.97;;;;;;;3.14;68.53;100831.56;4936003;29;20055;-83
2021/12/07 04:28:00;;;;;;;4.63;3.63;;;;;;;3.00;68.85;100808.69;4947443;28;20134;-82
2021/12/07 04:30:33;;;;;;;4.27;3.60;;;;;;;2.62;69.24;100750.47;4947693;28;20049;-81
2021/12/07 04:33:02;;;;;;;5.17;3.50;;;;;;;3.09;69.40;100830.97;4946049;29;20062;-83
2021/12/07 04:35:30;;;;;;;4.73;4.23;;;;;;;2.97;67.72;100803.63;4980711;28;20043;-84
2021/12/07 04:37:57;;;;;;;7.00;6.37;;;;;;;3.14;66.04;100810.56;4949805;29;20096;-82
2021/12/07 04:40:27;;;;;;;6.87;4.87;;;;;;;2.56;65.12;100740.28;4950570;29;20043;-82
2021/12/07 04:42:54;;;;;;;7.03;5.00;;;;;;;2.96;65.52;100832.53;4977888;28;20063;-85
2021/12/07 04:50:39;;;;;;;5.30;4.00;;;;;;;2.39;65.86;100774.41;4951519;28;20447;-83
2021/12/07 04:58:40;;;;;;;4.23;3.70;;;;;;;2.55;65.56;100869.66;4947925;29;20489;-82
2021/12/07 05:01:10;;;;;;;4.57;4.13;;;;;;;2.54;66.57;100873.19;4949329;29;20051;-82
2021/12/07 05:03:40;;;;;;;4.20;3.67;;;;;;;2.31;66.44;100851.63;4981643;28;20493;-81
2021/12/07 05:06:09;;;;;;;4.57;4.17;;;;;;;2.03;66.67;100812.03;4950783;28;20267;-82
2021/12/07 05:08:42;;;;;;;4.13;3.73;;;;;;;2.45;67.55;100885.00;4949777;29;20055;-82
2021/12/07 05:11:25;;;;;;;4.47;4.07;;;;;;;2.39;67.45;100868.72;4950042;29;20118;-82
2021/12/07 05:14:10;;;;;;;4.43;3.93;;;;;;;2.43;68.09;100879.00;4947613;29;20089;-83
2021/12/07 05:16:52;;;;;;;9.10;4.50;;;;;;;1.89;69.00;100790.00;4984580;28;20047;-83
2021/12/07 05:24:54;;;;;;;5.40;4.50;;;;;;;2.31;68.67;100866.50;4950799;29;20083;-82
2021/12/07 05:38:22;;;;;;;6.03;3.53;;;;;;;2.61;67.47;100874.56;4950589;29;20138;-81
2021/12/07 05:40:48;;;;;;;5.07;3.30;;;;;;;2.68;66.30;100891.69;4948880;29;20413;-81
2021/12/07 05:43:15;;;;;;;3.93;3.50;;;;;;;2.46;66.49;100864.88;4949015;29;20086;-82
2021/12/07 05:45:42;;;;;;;4.20;3.00;;;;;;;2.55;65.22;100875.75;4947986;28;20490;-82
2021/12/07 05:48:09;;;;;;;5.17;3.23;;;;;;;2.67;64.73;100897.88;4948729;29;20059;-82
2021/12/07 05:50:38;;;;;;;4.37;2.87;;;;;;;2.57;64.13;100867.78;4949033;29;20066;-80
2021/12/07 05:53:09;;;;;;;4.80;3.00;;;;;;;2.60;63.70;100854.53;4949342;29;20134;-81
2021/12/07 05:55:37;;;;;;;4.28;3.38;;;;;;;2.50;64.10;100835.81;4943523;29;20051;-82
2021/12/07 05:58:08;;;;;;;5.57;3.63;;;;;;;1.92;63.42;100744.50;4961278;28;20063;-82
2021/12/07 06:00:37;;;;;;;5.60;3.73;;;;;;;2.73;64.56;100852.97;4960498;28;20495;-81
2021/12/07 06:03:07;;;;;;;3.83;3.47;;;;;;;2.89;64.20;100881.00;4960141;28;20054;-83
2021/12/07 06:05:35;;;;;;;9.70;4.27;;;;;;;2.78;63.80;100858.81;4983082;28;20066;-82
2021/12/07 06:08:02;;;;;;;10.63;5.60;;;;;;;2.58;63.70;100822.31;4966618;28;20049;-82
2021/12/07 06:10:29;;;;;;;6.23;5.40;;;;;;;3.11;64.39;100883.34;4966528;28;20209;-83
2021/12/07 06:12:56;;;;;;;6.83;4.90;;;;;;;3.19;63.77;100889.03;4965853;28;20050;-81
2021/12/07 06:15:23;;;;;;;10.73;5.90;;;;;;;2.69;63.96;100814.72;4966829;28;20051;-81
2021/12/07 06:17:52;;;;;;;6.50;5.77;;;;;;;3.07;64.40;100880.03;4967137;28;20054;-84
2021/12/07 06:20:20;;;;;;;7.30;5.87;;;;;;;2.58;63.99;100796.09;4967058;28;20098;-82
2021/12/07 06:23:07;;;;;;;6.53;5.80;;;;;;;3.07;65.48;100882.66;4966775;28;20051;-82
2021/12/07 06:25:33;;;;;;;9.10;7.23;;;;;;;2.70;65.24;100847.88;4960863;28;20039;-82
2021/12/07 06:28:00;;;;;;;10.13;6.50;;;;;;;2.65;65.28;100844.66;4963040;28;20087;-82
2021/12/07 06:30:27;;;;;;;9.07;5.93;;;;;;;2.59;64.67;100808.28;4946742;29;20054;-84
2021/12/07 06:32:54;;;;;;;8.07;6.10;;;;;;;2.14;65.57;100752.09;4962632;28;20090;-81
2021/12/07 06:35:21;;;;;;;7.73;5.50;;;;;;;3.27;64.68;100910.44;4963638;28;20052;-82
2021/12/07 06:37:48;;;;;;;6.83;4.90;;;;;;;2.84;64.05;100839.31;4947481;29;20066;-82
2021/12/07 06:40:18;;;;;;;14.80;12.70;;;;;;;3.35;64.18;100912.66;4947856;29;20055;-82
2021/12/07 06:42:45;;;;;;;10.77;6.23;;;;;;;3.27;63.61;100904.34;4947934;28;20101;-82
2021/12/07 06:45:11;;;;;;;6.87;5.07;;;;;;;3.14;63.69;100918.13;4948640;28;20048;-83
2021/12/07 06:47:39;;;;;;;7.47;5.87;;;;;;;3.09;63.62;100899.16;4947477;29;20687;-80
2021/12/07 06:50:08;;;;;;;8.10;5.40;;;;;;;3.60;63.97;100941.06;4947347;29;20047;-82
2021/12/07 06:52:35;;;;;;;6.83;5.10;;;;;;;2.89;61.96;100881.88;4948632;28;20051;-83
2021/12/07 06:55:04;;;;;;;11.60;6.57;;;;;;;2.81;62.12;100883.19;4947302;29;20051;-83
2021/12/07 06:57:30;;;;;;;7.70;5.23;;;;;;;3.14;61.30;100960.09;4948193;28;20517;-82
2021/12/07 06:59:57;;;;;;;6.87;5.90;;;;;;;3.02;61.56;100966.00;4949220;28;20061;-83
2021/12/07 07:02:24;;;;;;;6.77;5.50;;;;;;;2.09;61.64;100814.34;4948409;29;20090;-82
2021/12/07 07:04:51;;;;;;;7.97;4.97;;;;;;;2.74;61.07;100929.84;4949545;28;20074;-83
2021/12/07 07:07:22;;;;;;;7.60;5.40;;;;;;;1.85;61.99;100790.22;4964178;28;20066;-84
2021/12/07 07:09:49;;;;;;;10.23;5.60;;;;;;;2.66;62.45;100924.16;4948028;29;20090;-84
2021/12/07 07:12:16;;;;;;;11.80;5.90;;;;;;;2.63;62.99;100930.38;4948394;29;20110;-83
2021/12/07 07:14:43;;;;;;;5.67;4.83;;;;;;;2.64;64.09;100921.59;4948126;28;20118;-84
2021/12/07 07:17:09;;;;;;;11.90;9.10;;;;;;;1.19;64.32;100683.53;4964363;28;20047;-83
2021/12/07 07:19:42;;;;;;;18.60;6.70;;;;;;;1.69;63.71;100748.25;4954581;28;20513;-84
2021/12/07 07:22:09;;;;;;;12.03;6.17;;;;;;;2.58;64.63;100900.94;4954961;28;20047;-83
2021/12/07 07:24:37;;;;;;;8.33;5.97;;;;;;;2.58;64.62;100895.72;4953348;29;20051;-83
2021/12/07 07:27:04;;;;;;;8.63;6.07;;;;;;;2.92;63.74;100946.41;4951309;29;20107;-84
2021/12/07 07:29:31;;;;;;;7.60;5.23;;;;;;;2.91;63.48;100944.69;4950456;29;20047;-85
2021/12/07 07:31:58;;;;;;;5.50;4.67;;;;;;;2.76;59.20;100900.00;4950636;29;20051;-85
2021/12/07 07:34:25;;;;;;;9.60;4.73;;;;;;;2.76;59.20;100907.00;4951258;29;20111;-84
2021/12/07 07:36:52;;;;;;;8.20;4.97;;;;;;;3.17;59.24;100957.31;4947912;28;20130;-85
2021/12/07 07:39:19;;;;;;;9.00;4.90;;;;;;;3.25;58.46;100963.94;4948053;29;20055;-83
2021/12/07 07:41:45;;;;;;;6.47;4.43;;;;;;;2.52;57.44;100827.84;4948908;28;20118;-82
2021/12/07 07:44:12;;;;;;;5.33;4.47;;;;;;;3.11;56.65;100920.94;4948551;28;20142;-83
2021/12/07 07:46:39;;;;;;;10.43;4.70;;;;;;;3.32;56.68;100931.19;4947667;29;20077;-84
2021/12/07 07:49:06;;;;;;;5.63;4.53;;;;;;;3.04;55.94;100879.38;4946475;29;20118;-84
2021/12/07 07:51:33;;;;;;;5.40;4.90;;;;;;;3.19;56.23;100900.38;4947255;28;20047;-85
2021/12/07 07:54:00;;;;;;;6.27;5.60;;;;;;;3.47;55.50;100942.66;4946835;28;20051;-83
2021/12/07 07:56:28;;;;;;;12.53;4.93;;;;;;;3.50;55.55;100939.88;4944422;29;20500;-82
2021/12/07 07:58:56;;;;;;;6.67;5.57;;;;;;;3.66;56.18;100968.75;4944264;29;20179;-83
2021/12/07 08:01:23;;;;;;;9.87;5.80;;;;;;;3.55;56.31;100951.81;4948046;28;20453;-81
2021/12/07 08:03:51;;;;;;;7.20;5.87;;;;;;;3.02;56.44;100874.19;4965992;28;20356;-82
2021/12/07 08:06:18;;;;;;;7.77;6.07;;;;;;;3.58;56.79;100966.56;4966518;28;20464;-82
2021/12/07 08:08:45;;;;;;;11.30;7.20;;;;;;;3.62;56.96;100966.31;4951035;28;20070;-80
2021/12/07 08:11:13;;;;;;;14.67;8.10;;;;;;;3.52;56.84;100956.38;4954179;28;20462;-80
2021/12/07 08:13:41;;;;;;;12.07;8.53;;;;;;;3.81;56.47;101009.94;4954112;28;20050;-82
2021/12/07 08:16:15;;;;;;;11.90;9.40;;;;;;;3.84;57.14;101004.53;4954237;28;20458;-81
2021/12/07 08:18:47;;;;;;;12.20;9.43;;;;;;;3.77;56.36;100997.94;4970906;28;20054;-80
2021/12/07 08:21:15;;;;;;;10.77;9.50;;;;;;;3.92;56.69;101012.00;4954330;28;20051;-80
2021/12/07 08:23:43;;;;;;;10.87;8.93;;;;;;;3.90;55.70;100998.94;4953936;28;20090;-82
2021/12/07 08:26:13;;;;;;;9.50;7.80;;;;;;;4.09;54.94;101013.69;4953670;28;20150;-81
2021/12/07 08:28:40;;;;;;;13.87;8.40;;;;;;;3.78;55.02;100953.19;4954041;28;20081;-81
2021/12/07 08:31:08;;;;;;;11.43;8.07;;;;;;;4.02;55.05;101011.41;4969347;28;20074;-82
2021/12/07 08:33:35;;;;;;;8.17;7.30;;;;;;;3.25;54.71;100885.22;4986258;28;20574;-81
2021/12/07 08:36:04;;;;;;;11.03;8.07;;;;;;;4.03;54.50;101007.84;4954340;28;20043;-81
2021/12/07 08:38:31;;;;;;;11.00;7.33;;;;;;;3.61;54.54;100927.84;4953919;28;20058;-81
2021/12/07 08:40:58;;;;;;;10.13;6.53;;;;;;;3.09;53.80;100833.59;4971127;28;20051;-80
2021/12/07 08:43:32;;;;;;;8.43;6.23;;;;;;;4.04;53.92;100992.94;4969854;28;20085;-82
2021/12/07 08:46:01;;;;;;;12.10;6.87;;;;;;;4.13;53.25;100999.47;4969588;28;20531;-83
2021/12/07 08:48:29;;;;;;;8.00;6.10;;;;;;;4.17;53.09;101003.59;4953789;28;20551;-81
2021/12/07 08:50:57;;;;;;;10.03;6.73;;;;;;;4.32;53.68;101012.41;4953896;28;20093;-82
2021/12/07 08:53:24;;;;;;;8.67;6.60;;;;;;;4.25;52.37;100993.53;4953733;28;20046;-82
2021/12/07 09:01:25;;;;;;;7.63;6.77;;;;;;;4.64;51.38;101042.16;4970305;28;20134;-81
2021/12/07 09:03:54;;;;;;;14.20;7.47;;;;;;;4.34;52.31;100987.72;4953814;28;20295;-82
2021/12/07 09:06:21;;;;;;;7.30;6.57;;;;;;;4.60;51.74;101014.31;4970571;28;20137;-80
2021/12/07 09:08:53;;;;;;;9.07;6.63;;;;;;;4.55;51.16;101008.50;4969155;28;20050;-83
2021/12/07 09:11:20;;;;;;;12.33;7.23;;;;;;;4.52;52.18;100987.63;4953469;28;20047;-80
2021/12/07 09:13:47;;;;;;;10.27;7.80;;;;;;;4.71;52.36;101004.06;4953034;28;20480;-81
2021/12/07 09:16:17;;;;;;;8.37;7.07;;;;;;;4.75;52.15;101015.22;4970212;28;20105;-80
2021/12/07 09:18:45;;;;;;;11.63;7.43;;;;;;;4.71;52.54;101012.78;4953244;28;20493;-82
2021/12/07 09:21:12;;;;;;;8.80;7.00;;;;;;;4.87;52.67;101028.50;4955660;28;20051;-83
2021/12/07 09:23:39;;;;;;;10.57;7.67;;;;;;;4.97;53.83;101054.28;4954668;28;20141;-82
2021/12/07 09:26:08;;;;;;;10.90;9.23;;;;;;;4.83;53.31;101021.75;4969736;28;20063;-82
2021/12/07 09:28:36;;;;;;;9.97;8.97;;;;;;;5.10;53.02;101055.28;4969876;28;20192;-82
2021/12/07 09:31:05;;;;;;;11.83;9.40;;;;;;;4.41;52.89;100922.50;4952993;28;20137;-82
2021/12/07 09:33:33;;;;;;;12.40;10.60;;;;;;;5.19;53.05;101046.81;4952174;28;20141;-81
2021/12/07 09:36:02;;;;;;;13.77;11.37;;;;;;;5.23;53.07;101036.97;4969476;28;20485;-80
2021/12/07 09:38:29;;;;;;;22.80;12.87;;;;;;;5.15;53.10;101021.63;4969704;28;20439;-80
2021/12/07 09:40:56;;;;;;;12.90;11.50;;;;;;;5.34;52.99;101032.75;4968361;28;20085;-81
2021/12/07 09:43:47;;;;;;;13.37;11.93;;;;;;;5.51;53.95;101044.03;4968652;28;20413;-79
2021/12/07 09:46:21;;;;;;;18.03;12.00;;;;;;;5.31;53.42;101011.84;4944993;28;20057;-82
2021/12/07 09:48:49;;;;;;;15.13;12.23;;;;;;;5.30;53.75;100989.13;4972757;28;20046;-82
2021/12/07 09:51:24;;;;;;;18.47;12.30;;;;;;;5.54;53.73;101025.44;4971880;28;20066;-80
2021/12/07 09:53:53;;;;;;;15.25;13.10;;;;;;;5.68;53.95;101043.88;4954475;28;20065;-81
2021/12/07 09:56:21;;;;;;;16.83;12.57;;;;;;;3.96;54.46;100763.97;4952241;28;20072;-81
2021/12/07 09:58:50;;;;;;;16.33;13.20;;;;;;;5.73;54.06;101049.72;4951746;28;20667;-82
2021/12/07 10:01:17;;;;;;;23.93;13.27;;;;;;;5.60;54.07;101011.88;4967367;28;20105;-81
2021/12/07 10:03:45;;;;;;;15.30;13.03;;;;;;;5.77;54.23;101040.66;4969120;28;20151;-82
2021/12/07 10:06:13;;;;;;;17.00;12.83;;;;;;;4.84;54.09;100878.75;4999770;28;20500;-82
2021/12/07 10:08:40;;;;;;;15.57;12.97;;;;;;;5.71;54.85;101004.16;4966163;28;20141;-81
2021/12/07 10:11:09;;;;;;;17.10;13.07;;;;;;;5.91;54.82;101036.34;4999062;28;20051;-82
2021/12/07 10:13:40;;;;;;;16.73;13.40;;;;;;;5.81;54.83;101014.13;5003817;28;20133;-82
2021/12/07 10:16:09;;;;;;;;;;;;;;;5.95;54.36;101043.16;5000014;28;20202;-81
2021/12/07 10:18:39;;;;;;;15.18;12.77;;;;;;;5.97;54.85;101046.50;4967862;28;20024;-81
2021/12/07 10:21:13;;;;;;;15.57;13.97;;;;;;;5.98;55.51;101037.66;4967818;28;20542;-83
2021/12/07 10:23:46;;;;;;;17.70;12.90;;;;;;;6.02;55.32;101039.19;4984449;28;20141;-80
2021/12/07 10:26:22;;;;;;;14.37;12.50;;;;;;;5.85;55.12;101010.34;4960165;28;20054;-83
2021/12/07 10:28:55;;;;;;;20.40;12.73;;;;;;;5.76;55.35;100996.81;4950960;28;20054;-80
2021/12/07 10:31:42;;;;;;;14.60;12.95;;;;;;;5.40;55.98;100933.28;4967060;28;20057;-83
2021/12/07 10:34:19;;;;;;;15.57;12.95;;;;;;;6.12;56.16;101045.56;4953795;28;20146;-82
2021/12/07 10:36:56;;;;;;;15.37;13.87;;;;;;;6.11;56.52;101028.03;4955341;28;20051;-80
2021/12/07 10:39:27;;;;;;;15.35;12.80;;;;;;;5.57;55.48;100938.31;4951115;28;20382;-81
2021/12/07 10:41:59;;;;;;;15.23;13.82;;;;;;;6.12;55.80;101019.19;4968501;28;20142;-81
2021/12/07 10:44:48;;;;;;;17.20;13.13;;;;;;;6.33;55.58;101037.22;4955196;28;20053;-81
2021/12/07 10:47:19;;;;;;;13.93;12.40;;;;;;;6.44;56.30;101029.47;4954595;28;20110;-81
2021/12/07 10:50:00;;;;;;;15.27;12.68;;;;;;;6.32;55.50;100986.28;4954839;28;20054;-82
2021/12/07 10:52:30;;;;;;;19.48;13.50;;;;;;;6.70;55.81;101019.00;4954524;28;20086;-81
2021/12/07 10:55:00;;;;;;;17.55;13.88;;;;;;;6.86;55.20;101003.84;4967229;28;20050;-79
2021/12/07 10:57:29;;;;;;;14.77;12.40;;;;;;;7.10;54.83;100995.22;4967481;28;20137;-83
2021/12/07 11:00:20;;;;;;;16.00;13.55;;;;;;;7.27;54.73;100998.38;4965993;28;20058;-82
2021/12/07 11:02:50;;;;;;;17.70;13.93;;;;;;;7.26;53.94;101001.16;4963751;28;20066;-82
2021/12/07 11:05:22;;;;;;;16.85;13.90;;;;;;;6.69;54.84;100919.69;4966006;28;20599;-83
2021/12/07 11:07:50;;;;;;;15.82;13.43;;;;;;;7.07;55.08;100994.47;4951880;28;20051;-85
2021/12/07 11:10:39;;;;;;;16.48;13.45;;;;;;;7.07;55.31;100994.47;4951422;28;20050;-86
2021/12/07 11:13:17;;;;;;;12.45;11.15;;;;;;;7.10;55.95;101003.16;4970248;28;20062;-84
2021/12/07 11:15:52;;;;;;;15.98;11.93;;;;;;;6.86;55.88;100972.16;4968150;28;20109;-82
2021/12/07 11:18:48;;;;;;;12.80;11.48;;;;;;;7.03;56.06;101019.38;4950919;28;20055;-81
2021/12/07 11:21:17;;;;;;;12.07;10.80;;;;;;;6.23;56.08;100862.13;4955152;28;20450;-82
2021/12/07 11:23:46;;;;;;;12.55;11.30;;;;;;;7.06;55.60;100995.44;4953933;28;20047;-82
2021/12/07 11:31:37;;;;;;;11.95;10.70;;;;;;;5.87;56.21;100810.84;4967453;28;20141;-82
2021/12/07 11:34:29;;;;;;;11.63;10.50;;;;;;;6.92;56.53;100962.97;4953660;28;20145;-82
2021/12/07 11:37:03;;;;;;;12.43;10.40;;;;;;;6.02;56.20;100801.97;4952034;28;20120;-82
2021/12/07 11:39:38;;;;;;;12.88;11.07;;;;;;;6.92;56.25;100955.06;4954372;28;20108;-83
2021/12/07 11:42:15;;;;;;;12.20;10.23;;;;;;;6.93;56.60;100956.78;4953520;28;20059;-83
2021/12/07 11:45:04;;;;;;;15.00;11.48;;;;;;;6.92;56.69;100955.94;4950922;28;20082;-81
2021/12/07 11:47:33;;;;;;;11.48;10.23;;;;;;;6.97;56.86;100967.00;4950831;28;20142;-81
2021/12/07 11:50:22;;;;;;;12.60;11.40;;;;;;;6.94;56.28;100963.72;4950148;28;20062;-81
2021/12/07 11:52:55;;;;;;;11.68;10.48;;;;;;;6.90;57.01;100943.78;4949018;28;20513;-84
2021/12/07 11:55:23;;;;;;;11.18;10.02;;;;;;;6.96;56.61;100938.91;4950411;28;20082;-83
2021/12/07 11:57:51;;;;;;;11.55;10.40;;;;;;;7.00;55.97;100950.97;4950353;28;20047;-82
2021/12/07 12:00:22;;;;;;;12.88;11.13;;;;;;;5.96;56.14;100762.84;4968002;28;20047;-82
2021/12/07 12:02:49;;;;;;;12.23;11.00;;;;;;;6.22;56.20;100799.81;4947057;29;20307;-83
2021/12/07 12:05:17;;;;;;;13.35;11.27;;;;;;;7.03;56.44;100936.72;4946642;29;20417;-83
2021/12/07 12:07:46;;;;;;;13.60;12.00;;;;;;;6.69;55.85;100880.13;4951021;28;20110;-83
2021/12/07 12:10:15;;;;;;;12.60;11.07;;;;;;;7.32;56.45;100969.03;4978678;28;20059;-81
2021/12/07 12:13:06;;;;;;;12.82;11.27;;;;;;;7.36;56.47;100969.66;4946468;29;20556;-82
2021/12/07 12:15:53;;;;;;;16.30;11.98;;;;;;;7.16;55.91;100931.41;4948228;28;20228;-82
2021/12/07 12:18:42;;;;;;;12.35;11.13;;;;;;;7.43;56.17;100948.00;4978918;28;20066;-83
2021/12/07 12:21:22;;;;;;;14.30;11.82;;;;;;;7.42;56.75;100950.72;4946565;29;20490;-82
2021/12/07 12:24:00;;;;;;;16.00;12.55;;;;;;;7.43;56.16;100945.34;4947273;29;20138;-83
2021/12/07 12:26:31;;;;;;;13.82;12.45;;;;;;;7.17;55.73;100912.00;4978103;28;20055;-82
2021/12/07 12:28:58;;;;;;;15.05;12.23;;;;;;;7.42;55.88;100948.09;4948356;29;20218;-82
2021/12/07 12:31:42;;;;;;;15.25;12.05;;;;;;;7.31;55.89;100930.38;4946990;29;20059;-81
2021/12/07 12:34:20;;;;;;;13.15;11.80;;;;;;;7.41;56.18;100952.53;4946892;29;20138;-83
2021/12/07 12:37:07;;;;;;;16.23;12.00;;;;;;;7.44;56.26;100952.31;4978706;28;20478;-82
2021/12/07 12:39:48;;;;;;;11.75;10.50;;;;;;;7.27;55.89;100929.72;4947183;29;20126;-83
2021/12/07 12:42:26;;;;;;;13.88;12.30;;;;;;;7.38;55.65;100946.59;4947029;29;20078;-82
2021/12/07 12:45:12;;;;;;;13.93;12.40;;;;;;;7.00;55.75;100882.31;4948193;28;20055;-82
2021/12/07 12:47:40;;;;;;;17.95;11.68;;;;;;;7.53;56.07;100960.56;4948316;28;20138;-83
2021/12/07 12:50:32;;;;;;;16.67;12.07;;;;;;;7.36;55.24;100922.97;4946969;29;20059;-81
2021/12/07 12:53:08;;;;;;;14.98;11.52;;;;;;;7.61;55.41;100960.84;4948474;28;20054;-84
2021/12/07 12:55:50;;;;;;;13.60;11.43;;;;;;;7.51;54.85;100936.03;4948215;28;20135;-85
2021/12/07 12:58:38;;;;;;;11.95;10.65;;;;;;;7.45;54.50;100927.59;4950540;29;20055;-83
2021/12/07 13:01:19;;;;;;;17.20;11.05;;;;;;;7.71;54.41;100954.78;4950422;29;20054;-84
2021/12/07 13:04:12;;;;;;;12.60;10.95;;;;;;;7.72;53.83;100960.94;4950427;29;20062;-84
2021/12/07 13:06:46;;;;;;;15.48;10.68;;;;;;;7.58;54.21;100922.28;4952756;29;20090;-82
2021/12/07 13:09:27;;;;;;;13.07;11.63;;;;;;;7.81;54.54;100949.69;4953634;29;20429;-83
2021/12/07 13:12:15;;;;;;;12.45;11.23;;;;;;;7.26;54.78;100874.41;4955169;29;20059;-84
2021/12/07 13:15:03;;;;;;;11.65;10.45;;;;;;;7.82;53.65;100954.03;4951968;29;20051;-85
2021/12/07 13:17:45;;;;;;;11.50;10.35;;;;;;;7.64;53.02;100921.00;4954780;28;20055;-87
2021/12/07 13:20:15;;;;;;;;;;;;;;;7.84;53.23;100957.44;4952435;29;20110;-85
2021/12/07 13:23:03;;;;;;;12.35;10.18;;;;;;;7.32;53.91;100868.66;4972182;28;19947;-85
2021/12/07 13:25:42;;;;;;;12.13;10.82;;;;;;;7.75;53.37;100931.66;4958500;29;20058;-85
2021/12/07 13:28:28;;;;;;;11.65;10.45;;;;;;;7.26;53.03;100853.25;4956713;28;20150;-84